LFCR

Rodez-Marcillac Airport

Airport
ICAO code
LFCR
IATA Code
RDZ
Summary
ICAO Region
EUR
ICAO Territory
Location

, Midi-Pyrenees

Serving
Rodez
Elevation
1910 ft
Coordinates
44° 24' 28" N , 2° 28' 58" E
Metar
Observation
LFCR 280400Z AUTO 23007KT 9999 BKN009/// BKN014/// BKN019/// ///CB 08/07 Q1016 TEMPO 2000 RA OVC008
Station
Rodez
Date/Time
2022-11-28 04:00:00
Wind direction
230°
Wind speed
07 kts
Lowest cloud amount
broken clouds
Temperature
8°C
Dew point
7°C
Humidity
93%
QNH
1016 hPa
Weather condition
n/a

Runways

Designator Length Width Surface Rops
13/31 2040 45 ASP No/No

Airport map

Aerial View

SKYbrary Partners:

Safety knowledge contributed by: